createdAt,value
2022-09-18T00:01:35.765Z,2.60
2022-09-18T00:04:06.313Z,2.50
2022-09-18T00:06:38.318Z,2.83
2022-09-18T00:09:10.638Z,2.97
2022-09-18T00:11:44.666Z,2.40
2022-09-18T00:14:16.015Z,2.50
2022-09-18T00:16:44.715Z,2.65
2022-09-18T00:19:13.287Z,2.35
2022-09-18T00:21:46.332Z,2.45
2022-09-18T00:24:14.203Z,2.70
2022-09-18T00:26:42.108Z,3.30
2022-09-18T00:29:11.978Z,3.00
2022-09-18T00:31:40.293Z,3.03
2022-09-18T00:34:12.292Z,2.80
2022-09-18T00:36:40.850Z,2.78
2022-09-18T00:39:08.920Z,2.80
2022-09-18T00:41:39.607Z,3.05
2022-09-18T00:44:40.240Z,3.60
2022-09-18T00:47:10.759Z,3.05
2022-09-18T00:49:42.809Z,3.17
2022-09-18T00:52:11.975Z,2.95
2022-09-18T00:54:43.412Z,2.72
2022-09-18T00:57:17.482Z,2.72
2022-09-18T00:59:48.232Z,3.50
2022-09-18T01:02:16.015Z,3.55
2022-09-18T01:04:44.043Z,3.20
2022-09-18T01:07:33.236Z,3.60
2022-09-18T01:10:28.601Z,3.20
2022-09-18T01:13:06.916Z,2.90
2022-09-18T01:15:49.699Z,3.38
2022-09-18T01:18:25.913Z,3.30
2022-09-18T01:21:05.962Z,4.05
2022-09-18T01:24:21.117Z,4.32
2022-09-18T01:26:57.145Z,3.83
2022-09-18T01:29:40.277Z,4.25
2022-09-18T01:32:23.792Z,4.45
2022-09-18T01:35:18.744Z,4.63
2022-09-18T01:38:03.626Z,5.30
2022-09-18T01:40:47.265Z,4.88
2022-09-18T01:43:18.280Z,4.78
2022-09-18T01:45:49.490Z,5.18
2022-09-18T01:48:26.851Z,6.10
2022-09-18T01:51:22.651Z,6.27
2022-09-18T01:54:02.422Z,5.82
2022-09-18T01:56:36.979Z,6.10
2022-09-18T01:59:10.656Z,5.22
2022-09-18T02:01:52.246Z,6.93
2022-09-18T02:04:26.507Z,5.72
2022-09-18T02:07:04.307Z,4.63
2022-09-18T02:09:32.331Z,5.53
2022-09-18T02:12:03.437Z,5.72
2022-09-18T02:14:39.331Z,5.47
2022-09-18T02:17:43.565Z,6.00
2022-09-18T02:20:23.189Z,6.30
2022-09-18T02:22:56.806Z,7.13
2022-09-18T02:25:30.763Z,6.10
2022-09-18T02:27:58.716Z,6.10
2022-09-18T02:30:29.396Z,4.55
2022-09-18T02:32:57.492Z,4.07
2022-09-18T02:35:33.597Z,2.97
2022-09-18T02:38:11.633Z,3.53
2022-09-18T02:41:12.005Z,2.40
2022-09-18T02:43:48.580Z,2.60
2022-09-18T02:46:41.540Z,3.20
2022-09-18T02:49:31.464Z,2.95
2022-09-18T02:52:06.391Z,3.40
2022-09-18T02:54:56.823Z,3.47
2022-09-18T02:57:34.751Z,4.45
2022-09-18T03:00:05.229Z,4.20
2022-09-18T03:02:33.730Z,3.67
2022-09-18T03:05:02.783Z,3.83
2022-09-18T03:07:42.408Z,3.45
2022-09-18T03:10:11.728Z,3.35
2022-09-18T03:12:39.751Z,3.40
2022-09-18T03:15:08.209Z,2.47
2022-09-18T03:17:35.791Z,1.92
2022-09-18T03:20:06.193Z,2.22
2022-09-18T03:22:33.652Z,2.28
2022-09-18T03:25:01.668Z,1.67
2022-09-18T03:27:29.123Z,2.22
2022-09-18T03:29:56.764Z,2.20
2022-09-18T03:32:26.149Z,2.00
2022-09-18T03:34:54.129Z,2.00
2022-09-18T03:37:21.759Z,1.75
2022-09-18T03:39:51.187Z,2.17
2022-09-18T03:42:18.655Z,2.67
2022-09-18T03:44:46.272Z,2.97
2022-09-18T03:47:21.782Z,2.85
2022-09-18T03:49:49.400Z,3.08
2022-09-18T03:52:18.369Z,3.47
2022-09-18T03:55:00.225Z,3.83
2022-09-18T03:57:47.121Z,3.63
2022-09-18T04:00:37.695Z,3.53
2022-09-18T04:03:12.812Z,3.70
2022-09-18T04:05:59.626Z,3.60
2022-09-18T04:09:06.399Z,3.95
2022-09-18T04:11:44.245Z,4.38
2022-09-18T04:14:13.955Z,4.68
2022-09-18T04:16:41.418Z,5.22
2022-09-18T04:19:09.684Z,5.13
2022-09-18T04:21:40.001Z,6.25
2022-09-18T04:24:07.535Z,5.78
2022-09-18T04:26:37.477Z,6.15
2022-09-18T04:29:05.848Z,5.45
2022-09-18T04:31:35.546Z,5.80
2022-09-18T04:34:07.573Z,5.50
2022-09-18T04:36:36.231Z,5.88
2022-09-18T04:39:04.427Z,5.13
2022-09-18T04:41:32.374Z,5.65
2022-09-18T04:44:00.572Z,6.22
2022-09-18T04:46:28.294Z,6.05
2022-09-18T04:48:55.989Z,5.90
2022-09-18T04:51:26.604Z,5.78
2022-09-18T04:53:54.176Z,6.15
2022-09-18T04:56:23.272Z,6.20
2022-09-18T04:58:53.141Z,5.82
2022-09-18T05:01:20.751Z,6.25
2022-09-18T05:03:48.839Z,6.15
2022-09-18T05:06:25.143Z,6.15
2022-09-18T05:08:53.057Z,6.03
2022-09-18T05:11:20.931Z,8.10
2022-09-18T05:13:48.905Z,7.32
2022-09-18T05:16:17.013Z,9.07
2022-09-18T05:18:54.122Z,7.45
2022-09-18T05:21:21.793Z,7.47
2022-09-18T05:23:51.591Z,6.07
2022-09-18T05:26:19.200Z,6.30
2022-09-18T05:28:50.232Z,5.15
2022-09-18T05:31:18.467Z,3.80
2022-09-18T05:33:48.065Z,4.22
2022-09-18T05:36:16.348Z,5.15
2022-09-18T05:38:46.299Z,3.20
2022-09-18T05:41:13.884Z,3.85
2022-09-18T05:43:44.967Z,2.83
2022-09-18T05:46:14.742Z,3.90
2022-09-18T05:48:52.515Z,2.45
2022-09-18T05:51:20.411Z,2.92
2022-09-18T05:53:48.973Z,3.33
2022-09-18T05:56:19.717Z,2.95
2022-09-18T05:58:47.726Z,2.67
2022-09-18T06:01:15.627Z,2.80
2022-09-18T06:04:02.725Z,2.67
2022-09-18T06:06:40.803Z,2.63
2022-09-18T06:09:10.458Z,3.10
2022-09-18T06:11:38.290Z,2.45
2022-09-18T06:14:06.829Z,3.53
2022-09-18T06:16:39.923Z,3.25
2022-09-18T06:19:10.240Z,3.95
2022-09-18T06:21:37.865Z,2.95
2022-09-18T06:24:09.457Z,2.80
2022-09-18T06:26:45.432Z,3.33
2022-09-18T06:29:13.479Z,2.92
2022-09-18T06:31:56.896Z,2.22
2022-09-18T06:34:27.067Z,2.45
2022-09-18T06:36:58.713Z,1.98
2022-09-18T06:39:46.948Z,1.90
2022-09-18T06:42:33.263Z,1.52
2022-09-18T06:45:12.940Z,1.58
2022-09-18T06:47:41.115Z,1.33
2022-09-18T06:50:09.748Z,1.55
2022-09-18T06:52:38.008Z,1.33
2022-09-18T06:55:06.634Z,1.83
2022-09-18T06:57:34.691Z,1.13
2022-09-18T07:00:03.236Z,1.33
2022-09-18T07:02:38.017Z,2.17
2022-09-18T07:05:26.837Z,1.65
2022-09-18T07:07:54.668Z,2.47
2022-09-18T07:10:24.475Z,2.63
2022-09-18T07:12:57.876Z,2.70
2022-09-18T07:15:26.719Z,2.53
2022-09-18T07:18:03.219Z,1.60
2022-09-18T07:20:32.094Z,1.55
2022-09-18T07:23:01.773Z,1.70
2022-09-18T07:25:52.400Z,1.90
2022-09-18T07:28:21.649Z,1.20
2022-09-18T07:31:04.291Z,2.00
2022-09-18T07:36:05.817Z,2.13
2022-09-18T07:38:37.606Z,2.45
2022-09-18T07:41:06.730Z,2.53
2022-09-18T07:43:34.974Z,2.65
2022-09-18T07:46:03.223Z,3.15
2022-09-18T07:48:34.830Z,2.50
2022-09-18T07:51:16.984Z,2.93
2022-09-18T07:53:49.119Z,2.78
2022-09-18T07:56:24.649Z,3.08
2022-09-18T07:58:52.821Z,3.97
2022-09-18T08:01:25.745Z,3.58
2022-09-18T08:03:58.452Z,3.20
2022-09-18T08:07:03.890Z,3.78
2022-09-18T08:09:50.865Z,3.95
2022-09-18T08:12:54.412Z,3.08
2022-09-18T08:15:25.238Z,4.55
2022-09-18T08:18:13.843Z,4.60
2022-09-18T08:21:10.372Z,5.05
2022-09-18T08:23:43.219Z,3.60
2022-09-18T08:26:11.225Z,4.45
2022-09-18T08:28:38.845Z,3.95
2022-09-18T08:31:07.319Z,4.00
2022-09-18T08:33:34.896Z,3.58
2022-09-18T08:36:03.495Z,2.78
2022-09-18T08:38:39.430Z,3.22
2022-09-18T08:41:51.695Z,3.72
2022-09-18T08:44:29.018Z,3.47
2022-09-18T08:47:05.560Z,3.47
2022-09-18T08:49:37.022Z,3.33
2022-09-18T08:52:17.233Z,3.20
2022-09-18T08:54:49.512Z,3.25
2022-09-18T08:58:00.128Z,3.00
2022-09-18T09:00:48.223Z,3.78
2022-09-18T09:03:37.053Z,3.97
2022-09-18T09:06:26.506Z,3.92
2022-09-18T09:09:21.605Z,3.47
2022-09-18T09:12:11.329Z,4.03
2022-09-18T09:14:57.632Z,3.10
2022-09-18T09:17:30.665Z,3.17
2022-09-18T09:20:20.918Z,2.83
2022-09-18T09:23:00.751Z,2.90
2022-09-18T09:25:55.037Z,2.70
2022-09-18T09:28:34.992Z,2.90
2022-09-18T09:31:40.460Z,2.72
2022-09-18T09:34:52.441Z,2.90
2022-09-18T09:37:45.352Z,2.63
2022-09-18T09:40:35.900Z,3.67
2022-09-18T09:43:42.056Z,2.50
2022-09-18T09:46:22.258Z,2.63
2022-09-18T09:49:10.173Z,3.70
2022-09-18T09:51:53.618Z,3.40
2022-09-18T09:56:53.010Z,2.30
2022-09-18T09:59:23.231Z,2.63
2022-09-18T10:02:27.965Z,2.40
2022-09-18T10:05:24.805Z,2.40
2022-09-18T10:07:58.101Z,2.60
2022-09-18T10:10:37.588Z,2.72
2022-09-18T10:13:19.591Z,2.63
2022-09-18T10:15:55.947Z,2.20
2022-09-18T10:18:31.707Z,1.80
2022-09-18T10:21:08.069Z,1.67
2022-09-18T10:23:41.492Z,1.70
2022-09-18T10:27:01.120Z,1.80
2022-09-18T10:29:33.895Z,1.70
2022-09-18T10:32:07.014Z,1.50
2022-09-18T10:34:49.602Z,1.90
2022-09-18T10:37:30.222Z,2.10
2022-09-18T10:40:33.747Z,1.60
2022-09-18T10:43:03.461Z,1.85
2022-09-18T10:45:38.124Z,1.92
2022-09-18T10:48:32.295Z,2.08
2022-09-18T10:51:02.169Z,2.25
2022-09-18T10:53:38.807Z,2.45
2022-09-18T10:56:21.911Z,2.20
2022-09-18T10:58:53.283Z,1.80
2022-09-18T11:01:21.719Z,1.88
2022-09-18T11:04:04.764Z,2.70
2022-09-18T11:06:37.715Z,1.70
2022-09-18T11:09:37.779Z,2.50
2022-09-18T11:12:25.428Z,1.75
2022-09-18T11:15:02.342Z,1.60
2022-09-18T11:17:33.733Z,1.50
2022-09-18T11:20:06.479Z,1.38
2022-09-18T11:22:53.103Z,1.42
2022-09-18T11:25:30.205Z,0.88
2022-09-18T11:28:27.901Z,0.90
2022-09-18T11:31:18.769Z,1.15
2022-09-18T11:33:55.667Z,1.10
2022-09-18T11:36:32.808Z,1.60
2022-09-18T11:41:42.327Z,1.23
2022-09-18T11:44:31.799Z,1.17
2022-09-18T11:47:23.794Z,1.52
2022-09-18T11:49:55.433Z,0.32
2022-09-18T11:52:29.032Z,0.20
2022-09-18T11:55:36.925Z,0.60
2022-09-18T11:58:14.341Z,0.17
2022-09-18T12:00:54.605Z,0.40
2022-09-18T12:03:41.759Z,0.50
2022-09-18T12:06:48.516Z,0.38
2022-09-18T12:09:38.599Z,0.70
2022-09-18T12:12:16.072Z,0.25
2022-09-18T12:14:47.001Z,0.57
2022-09-18T12:17:37.725Z,0.70
2022-09-18T12:20:12.716Z,0.80
2022-09-18T12:22:51.434Z,0.82
2022-09-18T12:25:28.831Z,1.15
2022-09-18T12:28:46.635Z,1.30
2022-09-18T12:31:29.222Z,1.45
2022-09-18T12:34:12.979Z,1.35
2022-09-18T12:37:24.033Z,1.23
2022-09-18T12:40:37.236Z,1.30
2022-09-18T12:43:39.502Z,2.78
2022-09-18T12:46:12.713Z,1.67
2022-09-18T12:49:09.173Z,1.42
2022-09-18T12:51:39.371Z,2.20
2022-09-18T12:54:20.211Z,2.33
2022-09-18T12:56:56.766Z,1.77
2022-09-18T12:59:49.870Z,1.30
2022-09-18T13:02:39.640Z,1.33
2022-09-18T13:05:27.901Z,1.60
2022-09-18T13:08:04.035Z,1.52
2022-09-18T13:10:35.495Z,1.25
2022-09-18T13:13:19.465Z,1.90
2022-09-18T13:16:07.963Z,1.73
2022-09-18T13:18:50.491Z,1.45
2022-09-18T13:21:45.537Z,1.50
2022-09-18T13:24:18.722Z,1.50
2022-09-18T13:26:49.069Z,1.33
2022-09-18T13:29:48.348Z,1.60
2022-09-18T13:32:22.942Z,2.35
2022-09-18T13:34:56.534Z,2.35
2022-09-18T13:37:26.690Z,1.75
2022-09-18T13:40:10.315Z,1.42
2022-09-18T13:42:41.183Z,1.70
2022-09-18T13:45:21.399Z,2.10
2022-09-18T13:48:13.783Z,1.77
2022-09-18T13:50:55.089Z,2.10
2022-09-18T13:53:38.691Z,1.48
2022-09-18T13:56:12.275Z,1.38
2022-09-18T13:58:52.289Z,1.27
2022-09-18T14:01:41.534Z,0.70
2022-09-18T14:04:40.642Z,1.20
2022-09-18T14:07:32.000Z,0.60
2022-09-18T14:10:05.707Z,0.77
2022-09-18T14:12:35.903Z,0.90
2022-09-18T14:15:06.930Z,1.02
2022-09-18T14:17:37.218Z,1.13
2022-09-18T14:20:19.591Z,0.82
2022-09-18T14:22:47.182Z,1.10
2022-09-18T14:25:35.291Z,0.82
2022-09-18T14:28:08.144Z,0.75
2022-09-18T14:33:10.760Z,1.00
2022-09-18T14:36:00.613Z,0.70
2022-09-18T14:38:38.922Z,0.63
2022-09-18T14:41:09.012Z,0.90
2022-09-18T14:43:47.655Z,0.77
2022-09-18T14:46:20.797Z,0.60
2022-09-18T14:48:48.864Z,0.88
2022-09-18T14:51:28.891Z,0.55
2022-09-18T14:53:58.928Z,0.95
2022-09-18T14:56:36.996Z,0.50
2022-09-18T14:59:16.689Z,0.60
2022-09-18T15:01:45.616Z,0.60
2022-09-18T15:04:25.981Z,0.50
2022-09-18T15:06:54.716Z,0.55
2022-09-18T15:09:32.823Z,0.75
2022-09-18T15:12:02.943Z,0.40
2022-09-18T15:14:43.976Z,0.70
2022-09-18T15:17:18.530Z,0.50
2022-09-18T15:19:58.603Z,0.50
2022-09-18T15:22:27.760Z,0.70
2022-09-18T15:24:58.600Z,0.57
2022-09-18T15:27:26.995Z,0.98
2022-09-18T15:30:06.965Z,0.73
2022-09-18T15:32:39.675Z,0.38
2022-09-18T15:35:17.496Z,0.47
2022-09-18T15:38:00.904Z,1.95
2022-09-18T15:40:34.646Z,0.77
2022-09-18T15:43:04.819Z,0.90
2022-09-18T15:45:36.973Z,0.38
2022-09-18T15:48:48.241Z,0.70
2022-09-18T15:51:17.581Z,0.75
2022-09-18T15:54:07.613Z,0.82
2022-09-18T15:56:39.676Z,2.38
2022-09-18T15:59:36.848Z,1.55
2022-09-18T16:02:27.593Z,1.20
2022-09-18T16:04:56.005Z,0.98
2022-09-18T16:07:27.049Z,0.75
2022-09-18T16:09:55.284Z,0.60
2022-09-18T16:12:31.609Z,0.70
2022-09-18T16:15:01.816Z,0.93
2022-09-18T16:17:29.294Z,1.10
2022-09-18T16:19:59.189Z,0.57
2022-09-18T16:22:29.637Z,0.60
2022-09-18T16:24:58.119Z,0.68
2022-09-18T16:27:26.623Z,0.68
2022-09-18T16:29:54.832Z,0.80
2022-09-18T16:32:23.283Z,0.63
2022-09-18T16:34:50.912Z,0.70
2022-09-18T16:37:19.195Z,1.00
2022-09-18T16:39:47.083Z,0.75
2022-09-18T16:42:18.618Z,0.70
2022-09-18T16:44:46.615Z,0.88
2022-09-18T16:47:15.878Z,0.90
2022-09-18T16:49:46.200Z,1.02
2022-09-18T16:52:14.822Z,0.82
2022-09-18T16:54:42.411Z,0.85
2022-09-18T16:57:16.197Z,0.55
2022-09-18T16:59:44.867Z,0.88
2022-09-18T17:02:17.274Z,0.55
2022-09-18T17:04:45.632Z,1.08
2022-09-18T17:07:13.219Z,1.08
2022-09-18T17:09:40.696Z,1.00
2022-09-18T17:12:08.509Z,0.75
2022-09-18T17:14:36.507Z,1.30
2022-09-18T17:17:04.540Z,1.20
2022-09-18T17:19:32.281Z,1.30
2022-09-18T17:21:59.802Z,0.95
2022-09-18T17:24:28.311Z,1.00
2022-09-18T17:26:55.825Z,0.80
2022-09-18T17:29:23.779Z,1.00
2022-09-18T17:31:52.397Z,1.58
2022-09-18T17:34:22.172Z,1.20
2022-09-18T17:36:50.189Z,1.02
2022-09-18T17:39:17.852Z,1.40
2022-09-18T17:41:45.916Z,1.30
2022-09-18T17:44:13.856Z,0.90
2022-09-18T17:46:41.562Z,1.13
2022-09-18T17:49:09.320Z,1.17
2022-09-18T17:51:37.227Z,1.27
2022-09-18T17:54:05.674Z,1.10
2022-09-18T17:56:33.994Z,1.05
2022-09-18T17:59:05.553Z,1.63
2022-09-18T18:01:36.502Z,2.00
2022-09-18T18:04:05.117Z,1.45
2022-09-18T18:06:33.768Z,1.33
2022-09-18T18:09:01.626Z,1.00
2022-09-18T18:11:29.662Z,1.13
2022-09-18T18:13:57.796Z,1.20
2022-09-18T18:16:28.798Z,0.73
2022-09-18T18:19:03.464Z,1.23
2022-09-18T18:21:33.356Z,1.30
2022-09-18T18:24:09.125Z,1.30
2022-09-18T18:26:38.858Z,1.58
2022-09-18T18:29:11.027Z,1.92
2022-09-18T18:31:40.659Z,2.10
2022-09-18T18:34:10.826Z,1.70
2022-09-18T18:36:40.170Z,1.50
2022-09-18T18:39:09.980Z,1.63
2022-09-18T18:41:37.718Z,1.48
2022-09-18T18:44:06.016Z,1.90
2022-09-18T18:46:36.418Z,2.50
2022-09-18T18:49:09.119Z,2.45
2022-09-18T18:51:47.688Z,2.35
2022-09-18T18:54:17.660Z,2.22
2022-09-18T18:56:46.377Z,4.47
2022-09-18T18:59:16.959Z,6.32
2022-09-18T19:01:45.444Z,3.40
2022-09-18T19:04:15.798Z,2.72
2022-09-18T19:06:44.817Z,2.58
2022-09-18T19:09:19.464Z,4.38
2022-09-18T19:11:50.520Z,4.00
2022-09-18T19:14:26.676Z,3.72
2022-09-18T19:16:55.755Z,7.18
2022-09-18T19:19:25.125Z,3.15
2022-09-18T19:21:53.641Z,4.00
2022-09-18T19:24:21.708Z,3.58
2022-09-18T19:26:49.709Z,2.22
2022-09-18T19:29:19.709Z,5.20
2022-09-18T19:31:49.435Z,4.25
2022-09-18T19:34:20.100Z,3.22
2022-09-18T19:36:49.075Z,2.13
2022-09-18T19:39:18.845Z,3.20
2022-09-18T19:42:03.209Z,2.92
2022-09-18T19:44:54.472Z,1.98
2022-09-18T19:47:38.019Z,2.97
2022-09-18T19:50:06.309Z,2.45
2022-09-18T19:52:34.127Z,2.53
2022-09-18T19:55:01.824Z,2.95
2022-09-18T19:57:30.604Z,4.40
2022-09-18T19:59:59.653Z,2.63
2022-09-18T20:02:27.583Z,2.17
2022-09-18T20:04:55.557Z,1.70
2022-09-18T20:07:23.115Z,2.47
2022-09-18T20:09:51.570Z,2.00
2022-09-18T20:12:19.364Z,3.33
2022-09-18T20:14:46.926Z,1.90
2022-09-18T20:17:14.950Z,1.75
2022-09-18T20:19:42.774Z,2.97
2022-09-18T20:22:10.687Z,3.42
2022-09-18T20:24:38.946Z,2.53
2022-09-18T20:27:07.404Z,2.88
2022-09-18T20:29:34.996Z,1.90
2022-09-18T20:32:03.129Z,2.13
2022-09-18T20:34:31.039Z,3.50
2022-09-18T20:36:59.130Z,2.83
2022-09-18T20:39:27.163Z,2.33
2022-09-18T20:41:57.475Z,1.70
2022-09-18T20:44:25.081Z,2.40
2022-09-18T20:46:56.795Z,2.45
2022-09-18T20:49:24.983Z,2.38
2022-09-18T20:51:53.004Z,2.92
2022-09-18T20:54:23.238Z,3.08
2022-09-18T20:56:50.747Z,2.33
2022-09-18T20:59:19.356Z,2.72
2022-09-18T21:01:48.019Z,2.28
2022-09-18T21:04:17.672Z,1.80
2022-09-18T21:06:55.292Z,2.05
2022-09-18T21:09:26.501Z,2.00
2022-09-18T21:11:55.047Z,2.55
2022-09-18T21:14:24.256Z,2.65
2022-09-18T21:16:51.964Z,1.98
2022-09-18T21:19:19.994Z,2.05
2022-09-18T21:21:48.406Z,1.52
2022-09-18T21:24:17.551Z,2.45
2022-09-18T21:26:48.038Z,1.70
2022-09-18T21:29:20.929Z,2.20
2022-09-18T21:31:51.784Z,2.93
2022-09-18T21:34:24.288Z,2.50
2022-09-18T21:36:56.449Z,1.58
2022-09-18T21:39:25.873Z,1.55
2022-09-18T21:41:54.776Z,1.63
2022-09-18T21:44:27.442Z,1.65
2022-09-18T21:47:02.044Z,2.03
2022-09-18T21:49:30.970Z,2.47
2022-09-18T21:52:00.612Z,1.63
2022-09-18T21:54:28.871Z,2.30
2022-09-18T21:56:56.841Z,2.17
2022-09-18T21:59:27.537Z,3.20
2022-09-18T22:01:55.308Z,1.10
2022-09-18T22:04:28.672Z,1.10
2022-09-18T22:06:58.762Z,1.27
2022-09-18T22:09:45.075Z,1.23
2022-09-18T22:12:13.095Z,1.70
2022-09-18T22:14:40.613Z,1.30
2022-09-18T22:17:09.053Z,1.58
2022-09-18T22:19:41.354Z,1.33
2022-09-18T22:22:11.246Z,1.52
2022-09-18T22:24:39.579Z,1.70
2022-09-18T22:27:08.657Z,1.20
2022-09-18T22:29:39.706Z,1.40
2022-09-18T22:32:08.930Z,1.30
2022-09-18T22:34:36.943Z,1.77
2022-09-18T22:37:05.447Z,1.10
2022-09-18T22:39:32.991Z,1.08
2022-09-18T22:42:00.939Z,1.77
2022-09-18T22:44:28.798Z,1.15
2022-09-18T22:46:56.638Z,0.98
2022-09-18T22:49:24.711Z,1.08
2022-09-18T22:51:52.400Z,1.30
2022-09-18T22:54:26.466Z,1.40
2022-09-18T22:56:55.193Z,1.27
2022-09-18T22:59:25.579Z,1.50
2022-09-18T23:01:57.609Z,1.58
2022-09-18T23:04:29.030Z,1.20
2022-09-18T23:06:57.938Z,1.20
2022-09-18T23:09:26.196Z,1.92
2022-09-18T23:11:54.557Z,1.90
2022-09-18T23:14:26.081Z,1.48
2022-09-18T23:16:54.867Z,1.10
2022-09-18T23:19:28.675Z,1.50
2022-09-18T23:24:25.029Z,1.48
2022-09-18T23:26:55.831Z,1.70
2022-09-18T23:29:25.279Z,1.42
2022-09-18T23:31:55.207Z,1.02
2022-09-18T23:34:25.336Z,1.63
2022-09-18T23:36:54.805Z,1.20
2022-09-18T23:39:32.672Z,1.50
2022-09-18T23:42:02.690Z,1.60
2022-09-18T23:44:31.634Z,1.35
2022-09-18T23:47:00.840Z,1.25
2022-09-18T23:49:30.179Z,1.45
2022-09-18T23:51:59.425Z,1.10
2022-09-18T23:54:30.307Z,1.00
2022-09-18T23:56:58.502Z,0.90
2022-09-18T23:59:27.050Z,1.02
